sensor_id;sensor_type;location;lat;lon;timestamp;P1;durP1;ratioP1;P2;durP2;ratioP2
71753;SDS011;59593;51.716;7.016;2023-06-04T00:00:05;4.27;;;1.57;;
71753;SDS011;59593;51.716;7.016;2023-06-04T00:02:31;4.93;;;1.60;;
71753;SDS011;59593;51.716;7.016;2023-06-04T00:04:57;3.13;;;1.45;;
71753;SDS011;59593;51.716;7.016;2023-06-04T00:07:23;2.78;;;1.40;;
71753;SDS011;59593;51.716;7.016;2023-06-04T00:09:48;3.45;;;1.55;;
71753;SDS011;59593;51.716;7.016;2023-06-04T00:12:14;2.30;;;1.38;;
71753;SDS011;59593;51.716;7.016;2023-06-04T00:14:40;3.95;;;1.77;;
71753;SDS011;59593;51.716;7.016;2023-06-04T00:17:07;6.28;;;1.80;;
71753;SDS011;59593;51.716;7.016;2023-06-04T00:19:33;3.42;;;1.45;;
71753;SDS011;59593;51.716;7.016;2023-06-04T00:21:59;5.95;;;1.80;;
71753;SDS011;59593;51.716;7.016;2023-06-04T00:24:26;5.50;;;1.70;;
71753;SDS011;59593;51.716;7.016;2023-06-04T00:26:51;4.15;;;1.55;;
71753;SDS011;59593;51.716;7.016;2023-06-04T00:29:17;3.53;;;1.60;;
71753;SDS011;59593;51.716;7.016;2023-06-04T00:31:42;4.40;;;1.65;;
71753;SDS011;59593;51.716;7.016;2023-06-04T00:34:08;3.23;;;1.80;;
71753;SDS011;59593;51.716;7.016;2023-06-04T00:36:36;5.03;;;1.98;;
71753;SDS011;59593;51.716;7.016;2023-06-04T00:39:02;3.25;;;1.80;;
71753;SDS011;59593;51.716;7.016;2023-06-04T00:41:27;3.75;;;1.75;;
71753;SDS011;59593;51.716;7.016;2023-06-04T00:43:53;3.40;;;1.90;;
71753;SDS011;59593;51.716;7.016;2023-06-04T00:46:26;3.25;;;1.58;;
71753;SDS011;59593;51.716;7.016;2023-06-04T00:48:53;4.22;;;1.52;;
71753;SDS011;59593;51.716;7.016;2023-06-04T00:51:20;2.78;;;1.80;;
71753;SDS011;59593;51.716;7.016;2023-06-04T00:53:49;2.90;;;1.70;;
71753;SDS011;59593;51.716;7.016;2023-06-04T00:56:15;3.55;;;1.80;;
71753;SDS011;59593;51.716;7.016;2023-06-04T00:58:41;4.00;;;1.70;;
71753;SDS011;59593;51.716;7.016;2023-06-04T01:01:12;6.22;;;1.95;;
71753;SDS011;59593;51.716;7.016;2023-06-04T01:03:47;4.30;;;1.70;;
71753;SDS011;59593;51.716;7.016;2023-06-04T01:06:20;4.47;;;1.53;;
71753;SDS011;59593;51.716;7.016;2023-06-04T01:08:53;2.37;;;1.73;;
71753;SDS011;59593;51.716;7.016;2023-06-04T01:13:59;3.55;;;1.70;;
71753;SDS011;59593;51.716;7.016;2023-06-04T01:16:25;3.90;;;1.83;;
71753;SDS011;59593;51.716;7.016;2023-06-04T01:18:56;3.40;;;1.73;;
71753;SDS011;59593;51.716;7.016;2023-06-04T01:21:27;8.38;;;2.00;;
71753;SDS011;59593;51.716;7.016;2023-06-04T01:23:57;4.32;;;1.95;;
71753;SDS011;59593;51.716;7.016;2023-06-04T01:26:30;4.03;;;1.60;;
71753;SDS011;59593;51.716;7.016;2023-06-04T01:28:57;2.97;;;1.60;;
71753;SDS011;59593;51.716;7.016;2023-06-04T01:31:24;2.47;;;1.70;;
71753;SDS011;59593;51.716;7.016;2023-06-04T01:33:54;2.55;;;1.80;;
71753;SDS011;59593;51.716;7.016;2023-06-04T01:36:23;3.95;;;1.80;;
71753;SDS011;59593;51.716;7.016;2023-06-04T01:38:49;3.00;;;1.87;;
71753;SDS011;59593;51.716;7.016;2023-06-04T01:41:15;3.35;;;1.98;;
71753;SDS011;59593;51.716;7.016;2023-06-04T01:43:41;3.10;;;1.90;;
71753;SDS011;59593;51.716;7.016;2023-06-04T01:46:06;2.80;;;1.90;;
71753;SDS011;59593;51.716;7.016;2023-06-04T01:48:32;2.78;;;1.63;;
71753;SDS011;59593;51.716;7.016;2023-06-04T01:50:58;4.75;;;1.92;;
71753;SDS011;59593;51.716;7.016;2023-06-04T01:53:24;4.18;;;1.80;;
71753;SDS011;59593;51.716;7.016;2023-06-04T01:55:49;3.78;;;2.10;;
71753;SDS011;59593;51.716;7.016;2023-06-04T01:58:16;3.63;;;1.90;;
71753;SDS011;59593;51.716;7.016;2023-06-04T02:00:48;3.53;;;1.80;;
71753;SDS011;59593;51.716;7.016;2023-06-04T02:03:14;4.07;;;1.80;;
71753;SDS011;59593;51.716;7.016;2023-06-04T02:05:41;3.60;;;1.90;;
71753;SDS011;59593;51.716;7.016;2023-06-04T02:08:09;3.60;;;1.80;;
71753;SDS011;59593;51.716;7.016;2023-06-04T02:10:36;6.83;;;1.90;;
71753;SDS011;59593;51.716;7.016;2023-06-04T02:13:02;2.53;;;1.60;;
71753;SDS011;59593;51.716;7.016;2023-06-04T02:15:29;3.67;;;1.98;;
71753;SDS011;59593;51.716;7.016;2023-06-04T02:17:57;3.67;;;1.80;;
71753;SDS011;59593;51.716;7.016;2023-06-04T02:20:24;2.50;;;1.73;;
71753;SDS011;59593;51.716;7.016;2023-06-04T02:22:51;2.73;;;1.90;;
71753;SDS011;59593;51.716;7.016;2023-06-04T02:25:16;4.10;;;1.83;;
71753;SDS011;59593;51.716;7.016;2023-06-04T02:27:43;3.90;;;1.67;;
71753;SDS011;59593;51.716;7.016;2023-06-04T02:30:09;4.70;;;2.17;;
71753;SDS011;59593;51.716;7.016;2023-06-04T02:32:35;2.87;;;1.90;;
71753;SDS011;59593;51.716;7.016;2023-06-04T02:35:01;3.33;;;1.97;;
71753;SDS011;59593;51.716;7.016;2023-06-04T02:37:27;4.30;;;2.40;;
71753;SDS011;59593;51.716;7.016;2023-06-04T02:39:52;3.73;;;2.03;;
71753;SDS011;59593;51.716;7.016;2023-06-04T02:42:18;4.20;;;2.00;;
71753;SDS011;59593;51.716;7.016;2023-06-04T02:44:43;2.40;;;1.90;;
71753;SDS011;59593;51.716;7.016;2023-06-04T02:47:09;2.97;;;2.07;;
71753;SDS011;59593;51.716;7.016;2023-06-04T02:49:35;4.03;;;2.03;;
71753;SDS011;59593;51.716;7.016;2023-06-04T02:52:00;3.53;;;2.13;;
71753;SDS011;59593;51.716;7.016;2023-06-04T02:54:26;3.13;;;1.97;;
71753;SDS011;59593;51.716;7.016;2023-06-04T02:56:52;2.90;;;2.30;;
71753;SDS011;59593;51.716;7.016;2023-06-04T02:59:18;5.00;;;2.40;;
71753;SDS011;59593;51.716;7.016;2023-06-04T03:01:44;4.30;;;2.27;;
71753;SDS011;59593;51.716;7.016;2023-06-04T03:04:09;2.90;;;2.00;;
71753;SDS011;59593;51.716;7.016;2023-06-04T03:06:40;5.17;;;2.20;;
71753;SDS011;59593;51.716;7.016;2023-06-04T03:09:09;2.80;;;2.10;;
71753;SDS011;59593;51.716;7.016;2023-06-04T03:11:36;3.67;;;2.20;;
71753;SDS011;59593;51.716;7.016;2023-06-04T03:14:02;4.67;;;2.73;;
71753;SDS011;59593;51.716;7.016;2023-06-04T03:16:28;5.30;;;2.40;;
71753;SDS011;59593;51.716;7.016;2023-06-04T03:18:53;7.47;;;2.63;;
71753;SDS011;59593;51.716;7.016;2023-06-04T03:21:19;3.63;;;2.30;;
71753;SDS011;59593;51.716;7.016;2023-06-04T03:23:45;5.30;;;2.67;;
71753;SDS011;59593;51.716;7.016;2023-06-04T03:26:10;7.17;;;2.60;;
71753;SDS011;59593;51.716;7.016;2023-06-04T03:28:37;3.07;;;2.27;;
71753;SDS011;59593;51.716;7.016;2023-06-04T03:31:03;3.07;;;2.53;;
71753;SDS011;59593;51.716;7.016;2023-06-04T03:33:29;3.13;;;2.37;;
71753;SDS011;59593;51.716;7.016;2023-06-04T03:35:54;5.20;;;2.43;;
71753;SDS011;59593;51.716;7.016;2023-06-04T03:38:23;5.67;;;2.10;;
71753;SDS011;59593;51.716;7.016;2023-06-04T03:40:49;2.90;;;2.47;;
71753;SDS011;59593;51.716;7.016;2023-06-04T03:43:17;4.57;;;2.57;;
71753;SDS011;59593;51.716;7.016;2023-06-04T03:45:46;4.23;;;2.20;;
71753;SDS011;59593;51.716;7.016;2023-06-04T03:48:12;2.93;;;2.37;;
71753;SDS011;59593;51.716;7.016;2023-06-04T03:50:37;4.50;;;2.53;;
71753;SDS011;59593;51.716;7.016;2023-06-04T03:53:03;3.90;;;2.47;;
71753;SDS011;59593;51.716;7.016;2023-06-04T03:55:30;3.10;;;2.47;;
71753;SDS011;59593;51.716;7.016;2023-06-04T03:57:57;5.40;;;2.60;;
71753;SDS011;59593;51.716;7.016;2023-06-04T04:00:23;5.47;;;2.70;;
71753;SDS011;59593;51.716;7.016;2023-06-04T04:02:48;5.23;;;2.30;;
71753;SDS011;59593;51.716;7.016;2023-06-04T04:05:15;4.93;;;2.37;;
71753;SDS011;59593;51.716;7.016;2023-06-04T04:07:40;3.10;;;2.50;;
71753;SDS011;59593;51.716;7.016;2023-06-04T04:10:06;4.37;;;2.40;;
71753;SDS011;59593;51.716;7.016;2023-06-04T04:12:32;5.80;;;2.40;;
71753;SDS011;59593;51.716;7.016;2023-06-04T04:14:58;4.37;;;2.50;;
71753;SDS011;59593;51.716;7.016;2023-06-04T04:17:24;6.83;;;2.70;;
71753;SDS011;59593;51.716;7.016;2023-06-04T04:19:50;3.33;;;2.60;;
71753;SDS011;59593;51.716;7.016;2023-06-04T04:22:16;4.40;;;2.67;;
71753;SDS011;59593;51.716;7.016;2023-06-04T04:24:42;5.07;;;2.50;;
71753;SDS011;59593;51.716;7.016;2023-06-04T04:27:08;6.57;;;2.70;;
71753;SDS011;59593;51.716;7.016;2023-06-04T04:29:36;4.80;;;2.40;;
71753;SDS011;59593;51.716;7.016;2023-06-04T04:32:03;4.10;;;2.80;;
71753;SDS011;59593;51.716;7.016;2023-06-04T04:34:35;4.73;;;2.57;;
71753;SDS011;59593;51.716;7.016;2023-06-04T04:37:16;4.83;;;2.77;;
71753;SDS011;59593;51.716;7.016;2023-06-04T04:39:42;4.90;;;2.30;;
71753;SDS011;59593;51.716;7.016;2023-06-04T04:42:07;4.73;;;2.67;;
71753;SDS011;59593;51.716;7.016;2023-06-04T04:44:33;2.73;;;2.47;;
71753;SDS011;59593;51.716;7.016;2023-06-04T04:46:58;4.17;;;2.43;;
71753;SDS011;59593;51.716;7.016;2023-06-04T04:49:24;4.00;;;2.23;;
71753;SDS011;59593;51.716;7.016;2023-06-04T04:51:50;3.37;;;2.47;;
71753;SDS011;59593;51.716;7.016;2023-06-04T04:54:16;3.27;;;2.37;;
71753;SDS011;59593;51.716;7.016;2023-06-04T04:56:41;3.30;;;2.33;;
71753;SDS011;59593;51.716;7.016;2023-06-04T04:59:07;3.77;;;2.50;;
71753;SDS011;59593;51.716;7.016;2023-06-04T05:01:33;5.47;;;2.60;;
71753;SDS011;59593;51.716;7.016;2023-06-04T05:03:58;6.17;;;2.07;;
71753;SDS011;59593;51.716;7.016;2023-06-04T05:06:24;4.20;;;2.60;;
71753;SDS011;59593;51.716;7.016;2023-06-04T05:08:49;5.43;;;2.40;;
71753;SDS011;59593;51.716;7.016;2023-06-04T05:11:15;4.63;;;2.30;;
71753;SDS011;59593;51.716;7.016;2023-06-04T05:13:41;2.37;;;2.17;;
71753;SDS011;59593;51.716;7.016;2023-06-04T05:16:07;4.70;;;2.40;;
71753;SDS011;59593;51.716;7.016;2023-06-04T05:18:33;4.97;;;2.43;;
71753;SDS011;59593;51.716;7.016;2023-06-04T05:20:59;4.37;;;2.47;;
71753;SDS011;59593;51.716;7.016;2023-06-04T05:23:29;3.37;;;2.50;;
71753;SDS011;59593;51.716;7.016;2023-06-04T05:25:59;6.23;;;2.50;;
71753;SDS011;59593;51.716;7.016;2023-06-04T05:28:26;3.03;;;2.30;;
71753;SDS011;59593;51.716;7.016;2023-06-04T05:30:52;3.97;;;2.40;;
71753;SDS011;59593;51.716;7.016;2023-06-04T05:33:23;3.42;;;2.25;;
71753;SDS011;59593;51.716;7.016;2023-06-04T05:35:49;4.70;;;2.40;;
71753;SDS011;59593;51.716;7.016;2023-06-04T05:38:16;5.13;;;2.40;;
71753;SDS011;59593;51.716;7.016;2023-06-04T05:40:43;3.90;;;2.40;;
71753;SDS011;59593;51.716;7.016;2023-06-04T05:43:10;4.77;;;2.40;;
71753;SDS011;59593;51.716;7.016;2023-06-04T05:45:35;5.70;;;2.40;;
71753;SDS011;59593;51.716;7.016;2023-06-04T05:48:01;5.53;;;2.37;;
71753;SDS011;59593;51.716;7.016;2023-06-04T05:50:27;3.40;;;2.03;;
71753;SDS011;59593;51.716;7.016;2023-06-04T05:52:53;4.07;;;2.25;;
71753;SDS011;59593;51.716;7.016;2023-06-04T05:55:19;5.17;;;2.40;;
71753;SDS011;59593;51.716;7.016;2023-06-04T05:57:44;3.33;;;2.03;;
71753;SDS011;59593;51.716;7.016;2023-06-04T06:00:10;4.63;;;1.70;;
71753;SDS011;59593;51.716;7.016;2023-06-04T06:02:36;2.92;;;1.63;;
71753;SDS011;59593;51.716;7.016;2023-06-04T06:05:05;2.97;;;1.88;;
71753;SDS011;59593;51.716;7.016;2023-06-04T06:07:33;3.85;;;1.80;;
71753;SDS011;59593;51.716;7.016;2023-06-04T06:09:59;3.15;;;1.70;;
71753;SDS011;59593;51.716;7.016;2023-06-04T06:12:24;3.95;;;1.70;;
71753;SDS011;59593;51.716;7.016;2023-06-04T06:14:50;2.53;;;1.60;;
71753;SDS011;59593;51.716;7.016;2023-06-04T06:17:16;4.05;;;1.50;;
71753;SDS011;59593;51.716;7.016;2023-06-04T06:19:41;2.85;;;1.67;;
71753;SDS011;59593;51.716;7.016;2023-06-04T06:22:07;3.03;;;1.58;;
71753;SDS011;59593;51.716;7.016;2023-06-04T06:24:33;2.28;;;1.75;;
71753;SDS011;59593;51.716;7.016;2023-06-04T06:26:59;6.65;;;1.60;;
71753;SDS011;59593;51.716;7.016;2023-06-04T06:29:24;3.33;;;1.73;;
71753;SDS011;59593;51.716;7.016;2023-06-04T06:31:50;6.30;;;1.70;;
71753;SDS011;59593;51.716;7.016;2023-06-04T06:34:16;3.13;;;1.55;;
71753;SDS011;59593;51.716;7.016;2023-06-04T06:36:41;3.97;;;1.83;;
71753;SDS011;59593;51.716;7.016;2023-06-04T06:39:07;5.72;;;1.60;;
71753;SDS011;59593;51.716;7.016;2023-06-04T06:41:34;3.97;;;1.80;;
71753;SDS011;59593;51.716;7.016;2023-06-04T06:43:59;3.65;;;1.60;;
71753;SDS011;59593;51.716;7.016;2023-06-04T06:46:25;2.83;;;1.58;;
71753;SDS011;59593;51.716;7.016;2023-06-04T06:48:54;3.55;;;1.80;;
71753;SDS011;59593;51.716;7.016;2023-06-04T06:51:20;4.35;;;1.65;;
71753;SDS011;59593;51.716;7.016;2023-06-04T06:53:45;2.45;;;1.80;;
71753;SDS011;59593;51.716;7.016;2023-06-04T06:56:14;2.47;;;1.77;;
71753;SDS011;59593;51.716;7.016;2023-06-04T06:58:40;3.47;;;1.73;;
71753;SDS011;59593;51.716;7.016;2023-06-04T07:01:05;7.57;;;1.80;;
71753;SDS011;59593;51.716;7.016;2023-06-04T07:03:31;4.25;;;2.20;;
71753;SDS011;59593;51.716;7.016;2023-06-04T07:05:57;5.10;;;1.83;;
71753;SDS011;59593;51.716;7.016;2023-06-04T07:08:23;2.10;;;1.50;;
71753;SDS011;59593;51.716;7.016;2023-06-04T07:10:49;3.83;;;1.73;;
71753;SDS011;59593;51.716;7.016;2023-06-04T07:13:18;2.92;;;1.65;;
71753;SDS011;59593;51.716;7.016;2023-06-04T07:15:45;3.35;;;1.70;;
71753;SDS011;59593;51.716;7.016;2023-06-04T07:18:11;4.07;;;1.90;;
71753;SDS011;59593;51.716;7.016;2023-06-04T07:20:37;3.63;;;1.95;;
71753;SDS011;59593;51.716;7.016;2023-06-04T07:23:02;4.90;;;1.60;;
71753;SDS011;59593;51.716;7.016;2023-06-04T07:25:28;5.25;;;1.92;;
71753;SDS011;59593;51.716;7.016;2023-06-04T07:27:54;4.15;;;1.85;;
71753;SDS011;59593;51.716;7.016;2023-06-04T07:30:23;3.60;;;1.80;;
71753;SDS011;59593;51.716;7.016;2023-06-04T07:32:52;4.32;;;1.77;;
71753;SDS011;59593;51.716;7.016;2023-06-04T07:35:18;2.25;;;1.90;;
71753;SDS011;59593;51.716;7.016;2023-06-04T07:37:43;3.03;;;1.75;;
71753;SDS011;59593;51.716;7.016;2023-06-04T07:40:11;3.53;;;1.90;;
71753;SDS011;59593;51.716;7.016;2023-06-04T07:42:36;3.03;;;2.08;;
71753;SDS011;59593;51.716;7.016;2023-06-04T07:45:02;2.55;;;1.70;;
71753;SDS011;59593;51.716;7.016;2023-06-04T07:47:28;6.53;;;2.15;;
71753;SDS011;59593;51.716;7.016;2023-06-04T07:49:54;4.07;;;2.20;;
71753;SDS011;59593;51.716;7.016;2023-06-04T07:52:20;4.45;;;2.10;;
71753;SDS011;59593;51.716;7.016;2023-06-04T07:54:45;6.63;;;2.25;;
71753;SDS011;59593;51.716;7.016;2023-06-04T07:57:11;5.53;;;2.00;;
71753;SDS011;59593;51.716;7.016;2023-06-04T07:59:37;4.13;;;2.20;;
71753;SDS011;59593;51.716;7.016;2023-06-04T08:02:03;6.00;;;1.98;;
71753;SDS011;59593;51.716;7.016;2023-06-04T08:04:29;5.55;;;2.05;;
71753;SDS011;59593;51.716;7.016;2023-06-04T08:06:54;5.30;;;2.10;;
71753;SDS011;59593;51.716;7.016;2023-06-04T08:09:23;4.90;;;2.25;;
71753;SDS011;59593;51.716;7.016;2023-06-04T08:11:49;5.30;;;1.92;;
71753;SDS011;59593;51.716;7.016;2023-06-04T08:14:14;5.47;;;1.98;;
71753;SDS011;59593;51.716;7.016;2023-06-04T08:16:40;4.68;;;1.95;;
71753;SDS011;59593;51.716;7.016;2023-06-04T08:19:06;3.38;;;2.00;;
71753;SDS011;59593;51.716;7.016;2023-06-04T08:21:32;3.17;;;2.00;;
71753;SDS011;59593;51.716;7.016;2023-06-04T08:23:59;3.47;;;2.00;;
71753;SDS011;59593;51.716;7.016;2023-06-04T08:26:25;4.18;;;2.00;;
71753;SDS011;59593;51.716;7.016;2023-06-04T08:28:52;3.80;;;1.83;;
71753;SDS011;59593;51.716;7.016;2023-06-04T08:31:18;6.05;;;2.10;;
71753;SDS011;59593;51.716;7.016;2023-06-04T08:33:47;3.28;;;1.80;;
71753;SDS011;59593;51.716;7.016;2023-06-04T08:36:18;5.65;;;1.95;;
71753;SDS011;59593;51.716;7.016;2023-06-04T08:38:44;2.85;;;1.92;;
71753;SDS011;59593;51.716;7.016;2023-06-04T08:41:13;2.58;;;1.90;;
71753;SDS011;59593;51.716;7.016;2023-06-04T08:43:42;3.50;;;2.10;;
71753;SDS011;59593;51.716;7.016;2023-06-04T08:46:13;3.15;;;1.90;;
71753;SDS011;59593;51.716;7.016;2023-06-04T08:48:40;7.13;;;2.20;;
71753;SDS011;59593;51.716;7.016;2023-06-04T08:51:06;3.85;;;2.03;;
71753;SDS011;59593;51.716;7.016;2023-06-04T08:53:35;2.35;;;1.85;;
71753;SDS011;59593;51.716;7.016;2023-06-04T08:56:47;4.00;;;1.80;;
71753;SDS011;59593;51.716;7.016;2023-06-04T08:59:14;4.53;;;1.90;;
71753;SDS011;59593;51.716;7.016;2023-06-04T09:01:40;5.65;;;2.00;;
71753;SDS011;59593;51.716;7.016;2023-06-04T09:04:10;3.00;;;2.10;;
71753;SDS011;59593;51.716;7.016;2023-06-04T09:06:36;5.95;;;2.00;;
71753;SDS011;59593;51.716;7.016;2023-06-04T09:09:03;3.60;;;1.92;;
71753;SDS011;59593;51.716;7.016;2023-06-04T09:11:33;4.40;;;1.75;;
71753;SDS011;59593;51.716;7.016;2023-06-04T09:14:19;3.35;;;1.40;;
71753;SDS011;59593;51.716;7.016;2023-06-04T09:16:46;2.78;;;1.80;;
71753;SDS011;59593;51.716;7.016;2023-06-04T09:19:14;2.78;;;1.63;;
71753;SDS011;59593;51.716;7.016;2023-06-04T09:21:54;2.75;;;1.80;;
71753;SDS011;59593;51.716;7.016;2023-06-04T09:24:21;4.05;;;1.90;;
71753;SDS011;59593;51.716;7.016;2023-06-04T09:26:49;2.50;;;1.42;;
71753;SDS011;59593;51.716;7.016;2023-06-04T09:29:15;2.75;;;1.63;;
71753;SDS011;59593;51.716;7.016;2023-06-04T09:31:46;2.55;;;1.45;;
71753;SDS011;59593;51.716;7.016;2023-06-04T09:34:28;5.18;;;1.48;;
71753;SDS011;59593;51.716;7.016;2023-06-04T09:36:56;2.47;;;1.40;;
71753;SDS011;59593;51.716;7.016;2023-06-04T09:39:22;3.50;;;1.60;;
71753;SDS011;59593;51.716;7.016;2023-06-04T09:41:58;2.67;;;1.63;;
71753;SDS011;59593;51.716;7.016;2023-06-04T09:44:31;2.72;;;1.70;;
71753;SDS011;59593;51.716;7.016;2023-06-04T09:47:07;2.08;;;1.48;;
71753;SDS011;59593;51.716;7.016;2023-06-04T09:49:39;1.80;;;1.40;;
71753;SDS011;59593;51.716;7.016;2023-06-04T09:52:09;2.47;;;1.50;;
71753;SDS011;59593;51.716;7.016;2023-06-04T09:54:35;1.92;;;1.30;;
71753;SDS011;59593;51.716;7.016;2023-06-04T09:57:02;3.05;;;1.65;;
71753;SDS011;59593;51.716;7.016;2023-06-04T09:59:40;4.95;;;1.70;;
71753;SDS011;59593;51.716;7.016;2023-06-04T10:02:08;2.38;;;1.52;;
71753;SDS011;59593;51.716;7.016;2023-06-04T10:04:36;2.25;;;1.33;;
71753;SDS011;59593;51.716;7.016;2023-06-04T10:07:05;2.70;;;1.50;;
71753;SDS011;59593;51.716;7.016;2023-06-04T10:09:32;2.63;;;1.50;;
71753;SDS011;59593;51.716;7.016;2023-06-04T10:12:00;3.17;;;1.52;;
71753;SDS011;59593;51.716;7.016;2023-06-04T10:14:38;4.57;;;1.83;;
71753;SDS011;59593;51.716;7.016;2023-06-04T10:17:11;11.30;;;1.60;;
71753;SDS011;59593;51.716;7.016;2023-06-04T10:19:38;3.50;;;1.50;;
71753;SDS011;59593;51.716;7.016;2023-06-04T10:22:05;3.70;;;1.63;;
71753;SDS011;59593;51.716;7.016;2023-06-04T10:24:31;2.95;;;1.60;;
71753;SDS011;59593;51.716;7.016;2023-06-04T10:27:00;2.38;;;1.50;;
71753;SDS011;59593;51.716;7.016;2023-06-04T10:29:26;3.58;;;1.75;;
71753;SDS011;59593;51.716;7.016;2023-06-04T10:31:53;2.30;;;1.50;;
71753;SDS011;59593;51.716;7.016;2023-06-04T10:34:20;2.38;;;1.60;;
71753;SDS011;59593;51.716;7.016;2023-06-04T10:36:46;3.15;;;1.60;;
71753;SDS011;59593;51.716;7.016;2023-06-04T10:39:11;1.70;;;1.55;;
71753;SDS011;59593;51.716;7.016;2023-06-04T10:41:37;3.60;;;1.50;;
71753;SDS011;59593;51.716;7.016;2023-06-04T10:44:03;3.30;;;1.58;;
71753;SDS011;59593;51.716;7.016;2023-06-04T10:46:38;4.68;;;1.60;;
71753;SDS011;59593;51.716;7.016;2023-06-04T10:49:05;2.33;;;1.50;;
71753;SDS011;59593;51.716;7.016;2023-06-04T10:51:32;3.78;;;1.60;;
71753;SDS011;59593;51.716;7.016;2023-06-04T10:53:59;1.70;;;1.55;;
71753;SDS011;59593;51.716;7.016;2023-06-04T10:56:30;2.30;;;1.70;;
71753;SDS011;59593;51.716;7.016;2023-06-04T10:59:12;1.98;;;1.50;;
71753;SDS011;59593;51.716;7.016;2023-06-04T11:01:39;2.97;;;1.60;;
71753;SDS011;59593;51.716;7.016;2023-06-04T11:04:05;2.42;;;1.42;;
71753;SDS011;59593;51.716;7.016;2023-06-04T11:06:31;4.80;;;1.70;;
71753;SDS011;59593;51.716;7.016;2023-06-04T11:09:04;1.92;;;1.40;;
71753;SDS011;59593;51.716;7.016;2023-06-04T11:11:30;3.15;;;1.70;;
71753;SDS011;59593;51.716;7.016;2023-06-04T11:14:09;4.63;;;1.40;;
71753;SDS011;59593;51.716;7.016;2023-06-04T11:16:37;7.30;;;1.67;;
71753;SDS011;59593;51.716;7.016;2023-06-04T11:19:03;5.93;;;1.85;;
71753;SDS011;59593;51.716;7.016;2023-06-04T11:21:29;3.03;;;1.55;;
71753;SDS011;59593;51.716;7.016;2023-06-04T11:23:57;4.45;;;1.85;;
71753;SDS011;59593;51.716;7.016;2023-06-04T11:26:33;1.92;;;1.70;;
71753;SDS011;59593;51.716;7.016;2023-06-04T11:29:00;3.85;;;1.33;;
71753;SDS011;59593;51.716;7.016;2023-06-04T11:31:27;4.35;;;3.15;;
71753;SDS011;59593;51.716;7.016;2023-06-04T11:33:52;4.07;;;1.85;;
71753;SDS011;59593;51.716;7.016;2023-06-04T11:36:25;3.63;;;1.80;;
71753;SDS011;59593;51.716;7.016;2023-06-04T11:38:58;5.50;;;1.70;;
71753;SDS011;59593;51.716;7.016;2023-06-04T11:41:31;3.63;;;1.65;;
71753;SDS011;59593;51.716;7.016;2023-06-04T11:44:00;3.30;;;1.50;;
71753;SDS011;59593;51.716;7.016;2023-06-04T11:46:28;2.30;;;1.73;;
71753;SDS011;59593;51.716;7.016;2023-06-04T11:48:54;1.63;;;1.48;;
71753;SDS011;59593;51.716;7.016;2023-06-04T11:51:20;3.30;;;1.70;;
71753;SDS011;59593;51.716;7.016;2023-06-04T11:53:46;1.70;;;1.40;;
71753;SDS011;59593;51.716;7.016;2023-06-04T11:56:12;3.67;;;1.50;;
71753;SDS011;59593;51.716;7.016;2023-06-04T11:58:38;3.15;;;1.40;;
71753;SDS011;59593;51.716;7.016;2023-06-04T12:01:05;2.75;;;1.50;;
71753;SDS011;59593;51.716;7.016;2023-06-04T12:03:38;2.58;;;1.70;;
71753;SDS011;59593;51.716;7.016;2023-06-04T12:06:15;1.58;;;1.48;;
71753;SDS011;59593;51.716;7.016;2023-06-04T12:08:46;2.53;;;1.70;;
71753;SDS011;59593;51.716;7.016;2023-06-04T12:13:59;2.30;;;1.50;;
71753;SDS011;59593;51.716;7.016;2023-06-04T12:16:29;4.97;;;1.70;;
71753;SDS011;59593;51.716;7.016;2023-06-04T12:19:08;2.17;;;1.58;;
71753;SDS011;59593;51.716;7.016;2023-06-04T12:21:35;4.88;;;1.55;;
71753;SDS011;59593;51.716;7.016;2023-06-04T12:26:38;1.95;;;1.73;;
71753;SDS011;59593;51.716;7.016;2023-06-04T12:31:42;3.72;;;2.20;;
71753;SDS011;59593;51.716;7.016;2023-06-04T12:34:08;2.75;;;1.85;;
71753;SDS011;59593;51.716;7.016;2023-06-04T12:36:34;4.45;;;1.60;;
71753;SDS011;59593;51.716;7.016;2023-06-04T12:39:01;3.22;;;1.65;;
71753;SDS011;59593;51.716;7.016;2023-06-04T12:41:28;2.38;;;1.50;;
71753;SDS011;59593;51.716;7.016;2023-06-04T12:43:55;3.75;;;1.45;;
71753;SDS011;59593;51.716;7.016;2023-06-04T12:46:22;3.28;;;1.73;;
71753;SDS011;59593;51.716;7.016;2023-06-04T12:48:49;2.17;;;1.58;;
71753;SDS011;59593;51.716;7.016;2023-06-04T12:51:16;3.05;;;1.80;;
71753;SDS011;59593;51.716;7.016;2023-06-04T12:53:41;2.40;;;1.60;;
71753;SDS011;59593;51.716;7.016;2023-06-04T12:56:07;3.00;;;1.70;;
71753;SDS011;59593;51.716;7.016;2023-06-04T12:58:33;3.22;;;1.80;;
71753;SDS011;59593;51.716;7.016;2023-06-04T13:01:00;3.97;;;1.80;;
71753;SDS011;59593;51.716;7.016;2023-06-04T13:03:26;2.40;;;1.60;;
71753;SDS011;59593;51.716;7.016;2023-06-04T13:05:52;2.90;;;1.55;;
71753;SDS011;59593;51.716;7.016;2023-06-04T13:08:19;3.78;;;1.50;;
71753;SDS011;59593;51.716;7.016;2023-06-04T13:10:45;3.42;;;1.73;;
71753;SDS011;59593;51.716;7.016;2023-06-04T13:13:12;3.35;;;1.55;;
71753;SDS011;59593;51.716;7.016;2023-06-04T13:15:37;5.88;;;1.65;;
71753;SDS011;59593;51.716;7.016;2023-06-04T13:18:03;2.42;;;1.70;;
71753;SDS011;59593;51.716;7.016;2023-06-04T13:20:29;3.85;;;1.95;;
71753;SDS011;59593;51.716;7.016;2023-06-04T13:22:54;3.97;;;1.60;;
71753;SDS011;59593;51.716;7.016;2023-06-04T13:25:20;4.60;;;1.50;;
71753;SDS011;59593;51.716;7.016;2023-06-04T13:27:47;2.63;;;1.63;;
71753;SDS011;59593;51.716;7.016;2023-06-04T13:30:13;3.15;;;1.58;;
71753;SDS011;59593;51.716;7.016;2023-06-04T13:32:39;2.20;;;1.70;;
71753;SDS011;59593;51.716;7.016;2023-06-04T13:35:05;3.17;;;1.70;;
71753;SDS011;59593;51.716;7.016;2023-06-04T13:37:31;3.42;;;1.77;;
71753;SDS011;59593;51.716;7.016;2023-06-04T13:39:59;3.05;;;1.80;;
71753;SDS011;59593;51.716;7.016;2023-06-04T13:42:25;5.20;;;1.70;;
71753;SDS011;59593;51.716;7.016;2023-06-04T13:44:51;2.33;;;1.58;;
71753;SDS011;59593;51.716;7.016;2023-06-04T13:47:16;2.17;;;1.70;;
71753;SDS011;59593;51.716;7.016;2023-06-04T13:49:43;2.67;;;1.50;;
71753;SDS011;59593;51.716;7.016;2023-06-04T13:52:08;1.67;;;1.42;;
71753;SDS011;59593;51.716;7.016;2023-06-04T13:54:34;4.45;;;1.90;;
71753;SDS011;59593;51.716;7.016;2023-06-04T13:57:03;2.05;;;1.50;;
71753;SDS011;59593;51.716;7.016;2023-06-04T13:59:29;2.83;;;1.60;;
71753;SDS011;59593;51.716;7.016;2023-06-04T14:01:56;2.70;;;1.60;;
71753;SDS011;59593;51.716;7.016;2023-06-04T14:04:22;5.07;;;1.98;;
71753;SDS011;59593;51.716;7.016;2023-06-04T14:06:47;4.28;;;1.60;;
71753;SDS011;59593;51.716;7.016;2023-06-04T14:09:13;3.15;;;1.75;;
71753;SDS011;59593;51.716;7.016;2023-06-04T14:11:39;2.45;;;1.60;;
71753;SDS011;59593;51.716;7.016;2023-06-04T14:14:05;2.85;;;1.52;;
71753;SDS011;59593;51.716;7.016;2023-06-04T14:16:31;3.20;;;1.70;;
71753;SDS011;59593;51.716;7.016;2023-06-04T14:18:57;2.22;;;1.63;;
71753;SDS011;59593;51.716;7.016;2023-06-04T14:21:23;1.58;;;1.48;;
71753;SDS011;59593;51.716;7.016;2023-06-04T14:23:48;2.63;;;1.88;;
71753;SDS011;59593;51.716;7.016;2023-06-04T14:26:15;3.45;;;1.80;;
71753;SDS011;59593;51.716;7.016;2023-06-04T14:28:42;3.83;;;1.60;;
71753;SDS011;59593;51.716;7.016;2023-06-04T14:31:09;2.75;;;1.67;;
71753;SDS011;59593;51.716;7.016;2023-06-04T14:33:34;2.97;;;1.67;;
71753;SDS011;59593;51.716;7.016;2023-06-04T14:36:02;2.80;;;1.60;;
71753;SDS011;59593;51.716;7.016;2023-06-04T14:38:28;4.28;;;1.70;;
71753;SDS011;59593;51.716;7.016;2023-06-04T14:40:54;4.00;;;1.63;;
71753;SDS011;59593;51.716;7.016;2023-06-04T14:43:21;1.98;;;1.50;;
71753;SDS011;59593;51.716;7.016;2023-06-04T14:45:47;6.43;;;1.83;;
71753;SDS011;59593;51.716;7.016;2023-06-04T14:48:13;2.67;;;1.65;;
71753;SDS011;59593;51.716;7.016;2023-06-04T14:50:38;3.30;;;1.75;;
71753;SDS011;59593;51.716;7.016;2023-06-04T14:53:04;2.17;;;1.70;;
71753;SDS011;59593;51.716;7.016;2023-06-04T14:55:32;3.70;;;1.77;;
71753;SDS011;59593;51.716;7.016;2023-06-04T14:57:59;3.25;;;1.58;;